Terminal Aerodrome Forecast
Issued by NWS

Home | Current Version | Previous Version | Text Only | Print | Product List | Glossary On
Versions: 1 2 3 4 5 6 7 8 9 10 11 12 13 14 15 16 17
000
FTUS42 TJSJ 231100
TAFKPK
TAF
TKPK 231127Z 2312/2412 11004KT P6SM FEW015 SCT050
     FM231300 11008KT P6SM VCSH FEW020 BKN070
     FM232100 08006KT P6SM FEW022 SCT070=

USA.gov is the U.S. government's official web portal to all federal, state and local government web resources and services.